createdAt,value
2023-08-27T00:01:17.027Z,100.00
2023-08-27T00:04:20.152Z,100.00
2023-08-27T00:07:22.888Z,100.00
2023-08-27T00:10:25.663Z,100.00
2023-08-27T00:13:28.374Z,100.00
2023-08-27T00:16:31.181Z,100.00
2023-08-27T00:19:33.890Z,100.00
2023-08-27T00:22:40.409Z,100.00
2023-08-27T00:25:46.705Z,100.00
2023-08-27T00:28:49.430Z,100.00
2023-08-27T00:31:52.126Z,100.00
2023-08-27T00:34:55.045Z,100.00
2023-08-27T00:37:57.744Z,100.00
2023-08-27T00:41:00.539Z,100.00
2023-08-27T00:44:03.292Z,100.00
2023-08-27T00:47:06.483Z,100.00
2023-08-27T00:50:11.666Z,100.00
2023-08-27T00:53:14.588Z,100.00
2023-08-27T00:56:17.266Z,100.00
2023-08-27T00:59:20.061Z,100.00
2023-08-27T01:02:22.876Z,100.00
2023-08-27T01:05:26.630Z,100.00
2023-08-27T01:08:39.671Z,100.00
2023-08-27T01:12:04.656Z,100.00
2023-08-27T01:15:08.573Z,100.00
2023-08-27T01:18:12.248Z,100.00
2023-08-27T01:21:28.575Z,100.00
2023-08-27T01:24:31.585Z,100.00
2023-08-27T01:27:41.388Z,100.00
2023-08-27T01:30:57.552Z,100.00
2023-08-27T01:34:01.389Z,100.00
2023-08-27T01:37:07.772Z,100.00
2023-08-27T01:40:10.857Z,100.00
2023-08-27T01:43:14.196Z,100.00
2023-08-27T01:46:16.911Z,100.00
2023-08-27T01:49:19.650Z,100.00
2023-08-27T01:52:22.415Z,100.00
2023-08-27T01:55:25.277Z,100.00
2023-08-27T01:58:29.263Z,100.00
2023-08-27T02:01:32.030Z,100.00
2023-08-27T02:04:34.703Z,100.00
2023-08-27T02:07:38.643Z,100.00
2023-08-27T02:10:41.428Z,100.00
2023-08-27T02:13:44.103Z,100.00
2023-08-27T02:16:46.785Z,100.00
2023-08-27T02:19:49.501Z,100.00
2023-08-27T02:22:55.593Z,100.00
2023-08-27T02:25:58.519Z,100.00
2023-08-27T02:29:02.168Z,100.00
2023-08-27T02:32:05.212Z,100.00
2023-08-27T02:35:08.466Z,100.00
2023-08-27T02:38:11.170Z,100.00
2023-08-27T02:41:14.671Z,100.00
2023-08-27T02:44:17.380Z,100.00
2023-08-27T02:47:20.613Z,100.00
2023-08-27T02:50:23.330Z,100.00
2023-08-27T02:53:25.979Z,100.00
2023-08-27T02:56:28.736Z,100.00
2023-08-27T02:59:31.696Z,100.00
2023-08-27T03:02:34.467Z,100.00
2023-08-27T03:05:37.415Z,100.00
2023-08-27T03:08:40.229Z,100.00
2023-08-27T03:11:42.854Z,100.00
2023-08-27T03:14:45.790Z,100.00
2023-08-27T03:17:48.461Z,100.00
2023-08-27T03:20:51.251Z,100.00
2023-08-27T03:23:53.872Z,100.00
2023-08-27T03:26:56.683Z,100.00
2023-08-27T03:29:59.383Z,100.00
2023-08-27T03:33:03.759Z,100.00
2023-08-27T03:36:06.782Z,100.00
2023-08-27T03:39:10.007Z,100.00
2023-08-27T03:42:12.689Z,100.00
2023-08-27T03:45:15.515Z,100.00
2023-08-27T03:48:18.248Z,100.00
2023-08-27T03:51:21.062Z,100.00
2023-08-27T03:54:23.961Z,100.00
2023-08-27T03:57:26.666Z,100.00
2023-08-27T04:00:29.404Z,100.00
2023-08-27T04:03:33.112Z,100.00
2023-08-27T04:06:35.894Z,100.00
2023-08-27T04:09:39.251Z,100.00
2023-08-27T04:12:41.915Z,100.00
2023-08-27T04:15:44.666Z,100.00
2023-08-27T04:18:47.780Z,100.00
2023-08-27T04:21:50.526Z,100.00
2023-08-27T04:24:53.217Z,100.00
2023-08-27T04:27:56.046Z,100.00
2023-08-27T04:30:58.756Z,100.00
2023-08-27T04:34:01.460Z,100.00
2023-08-27T04:37:05.174Z,100.00
2023-08-27T04:40:08.595Z,100.00
2023-08-27T04:43:11.467Z,100.00
2023-08-27T04:46:17.192Z,100.00
2023-08-27T04:49:20.312Z,100.00
2023-08-27T04:52:31.094Z,100.00
2023-08-27T04:55:37.905Z,100.00
2023-08-27T04:58:40.681Z,100.00
2023-08-27T05:01:43.357Z,100.00
2023-08-27T05:04:47.443Z,100.00
2023-08-27T05:07:50.108Z,100.00
2023-08-27T05:10:52.848Z,100.00
2023-08-27T05:13:55.612Z,100.00
2023-08-27T05:16:58.458Z,100.00
2023-08-27T05:20:01.291Z,100.00
2023-08-27T05:23:04.281Z,100.00
2023-08-27T05:26:06.966Z,100.00
2023-08-27T05:29:09.640Z,100.00
2023-08-27T05:32:12.359Z,100.00
2023-08-27T05:35:15.116Z,100.00
2023-08-27T05:38:17.844Z,100.00
2023-08-27T05:41:20.793Z,100.00
2023-08-27T05:44:24.311Z,100.00
2023-08-27T05:47:30.277Z,100.00
2023-08-27T05:50:38.101Z,100.00
2023-08-27T05:53:41.122Z,100.00
2023-08-27T05:56:43.848Z,100.00
2023-08-27T05:59:47.745Z,100.00
2023-08-27T06:02:50.462Z,100.00
2023-08-27T06:05:53.178Z,100.00
2023-08-27T06:08:55.888Z,100.00
2023-08-27T06:11:59.991Z,100.00
2023-08-27T06:15:08.749Z,100.00
2023-08-27T06:18:11.503Z,100.00
2023-08-27T06:21:14.204Z,100.00
2023-08-27T06:24:17.177Z,100.00
2023-08-27T06:27:20.204Z,100.00
2023-08-27T06:30:23.999Z,100.00
2023-08-27T06:33:29.059Z,100.00
2023-08-27T06:36:33.073Z,100.00
2023-08-27T06:39:41.998Z,100.00
2023-08-27T06:42:44.689Z,100.00
2023-08-27T06:45:47.439Z,100.00
2023-08-27T06:48:50.784Z,100.00
2023-08-27T06:51:53.608Z,99.85
2023-08-27T06:54:56.522Z,100.00
2023-08-27T06:58:00.265Z,99.40
2023-08-27T07:01:06.282Z,98.84
2023-08-27T07:04:09.002Z,98.12
2023-08-27T07:07:11.740Z,98.27
2023-08-27T07:10:14.452Z,97.98
2023-08-27T07:13:17.184Z,96.91
2023-08-27T07:16:21.244Z,96.84
2023-08-27T07:19:24.072Z,93.60
2023-08-27T07:22:26.901Z,94.02
2023-08-27T07:25:29.678Z,93.64
2023-08-27T07:28:33.000Z,93.36
2023-08-27T07:31:35.755Z,92.90
2023-08-27T07:34:38.517Z,93.00
2023-08-27T07:37:41.257Z,92.75
2023-08-27T07:40:44.061Z,91.96
2023-08-27T07:43:46.771Z,89.48
2023-08-27T07:46:49.494Z,88.87
2023-08-27T07:49:52.425Z,90.29
2023-08-27T07:52:55.260Z,89.66
2023-08-27T07:55:58.638Z,88.54
2023-08-27T07:59:01.509Z,86.59
2023-08-27T08:02:04.666Z,85.51
2023-08-27T08:05:08.385Z,86.89
2023-08-27T08:08:11.294Z,84.05
2023-08-27T08:11:13.941Z,84.92
2023-08-27T08:14:16.823Z,83.02
2023-08-27T08:17:22.289Z,82.84
2023-08-27T08:20:27.199Z,82.43
2023-08-27T08:23:29.997Z,83.09
2023-08-27T08:26:32.758Z,81.14
2023-08-27T08:29:35.673Z,81.47
2023-08-27T08:32:38.596Z,79.17
2023-08-27T08:35:41.309Z,80.26
2023-08-27T08:38:44.443Z,80.33
2023-08-27T08:41:58.907Z,80.37
2023-08-27T08:45:26.505Z,77.74
2023-08-27T08:48:51.101Z,77.36
2023-08-27T08:51:56.992Z,77.01
2023-08-27T08:54:59.936Z,78.77
2023-08-27T08:58:09.345Z,76.15
2023-08-27T09:01:12.574Z,77.83
2023-08-27T09:04:16.481Z,74.59
2023-08-27T09:07:20.077Z,74.48
2023-08-27T09:10:24.062Z,73.63
2023-08-27T09:13:26.874Z,74.83
2023-08-27T09:16:29.711Z,72.98
2023-08-27T09:19:32.545Z,73.00
2023-08-27T09:22:37.842Z,72.52
2023-08-27T09:25:41.128Z,71.84
2023-08-27T09:28:43.992Z,71.07
2023-08-27T09:31:47.028Z,71.16
2023-08-27T09:34:50.477Z,70.68
2023-08-27T09:37:53.194Z,70.09
2023-08-27T09:40:56.042Z,68.94
2023-08-27T09:43:58.785Z,68.91
2023-08-27T09:47:06.068Z,67.56
2023-08-27T09:50:15.567Z,67.30
2023-08-27T09:53:18.508Z,66.41
2023-08-27T09:56:26.353Z,67.12
2023-08-27T09:59:29.914Z,67.06
2023-08-27T10:02:32.578Z,64.77
2023-08-27T10:05:35.816Z,64.17
2023-08-27T10:08:52.417Z,65.19
2023-08-27T10:11:55.352Z,63.34
2023-08-27T10:14:58.816Z,63.50
2023-08-27T10:18:01.862Z,62.26
2023-08-27T10:21:05.044Z,61.75
2023-08-27T10:24:11.787Z,61.94
2023-08-27T10:27:14.669Z,61.51
2023-08-27T10:30:18.795Z,59.46
2023-08-27T10:33:21.554Z,61.88
2023-08-27T10:36:30.691Z,60.17
2023-08-27T10:39:34.261Z,58.68
2023-08-27T10:42:40.596Z,59.37
2023-08-27T10:45:43.415Z,59.66
2023-08-27T10:48:51.209Z,58.11
2023-08-27T10:51:57.228Z,59.12
2023-08-27T10:55:03.542Z,56.67
2023-08-27T10:58:17.826Z,55.63
2023-08-27T11:01:20.719Z,55.02
2023-08-27T11:04:35.845Z,54.92
2023-08-27T11:07:42.472Z,57.11
2023-08-27T11:10:46.040Z,53.91
2023-08-27T11:13:48.816Z,53.39
2023-08-27T11:17:04.780Z,53.65
2023-08-27T11:20:27.297Z,52.03
2023-08-27T11:23:30.060Z,51.71
2023-08-27T11:26:33.859Z,50.48
2023-08-27T11:29:41.530Z,48.73
2023-08-27T11:32:44.813Z,49.06
2023-08-27T11:35:47.539Z,51.70
2023-08-27T11:38:50.320Z,49.78
2023-08-27T11:41:53.009Z,51.77
2023-08-27T11:44:56.946Z,49.79
2023-08-27T11:48:07.222Z,50.76
2023-08-27T11:51:10.726Z,46.89
2023-08-27T11:54:13.811Z,48.39
2023-08-27T11:57:17.422Z,46.78
2023-08-27T12:00:21.916Z,47.42
2023-08-27T12:03:24.905Z,47.85
2023-08-27T12:06:29.716Z,46.31
2023-08-27T12:09:36.880Z,47.77
2023-08-27T12:12:41.307Z,47.85
2023-08-27T12:15:44.364Z,46.74
2023-08-27T12:18:47.875Z,46.50
2023-08-27T12:21:55.449Z,45.79
2023-08-27T12:25:00.561Z,44.96
2023-08-27T12:28:03.437Z,41.79
2023-08-27T12:31:06.208Z,43.64
2023-08-27T12:34:08.961Z,44.31
2023-08-27T12:37:12.905Z,43.62
2023-08-27T12:40:15.766Z,41.20
2023-08-27T12:43:18.484Z,42.43
2023-08-27T12:46:21.570Z,40.66
2023-08-27T12:49:24.438Z,39.68
2023-08-27T12:52:27.277Z,38.84
2023-08-27T12:55:30.018Z,39.75
2023-08-27T12:58:32.860Z,39.27
2023-08-27T13:01:35.833Z,38.81
2023-08-27T13:04:38.849Z,39.02
2023-08-27T13:07:41.897Z,36.72
2023-08-27T13:10:44.754Z,36.15
2023-08-27T13:13:47.654Z,36.54
2023-08-27T13:16:50.559Z,35.02
2023-08-27T13:19:53.294Z,35.72
2023-08-27T13:22:56.393Z,37.57
2023-08-27T13:25:59.191Z,36.47
2023-08-27T13:29:01.964Z,36.13
2023-08-27T13:32:04.962Z,34.98
2023-08-27T13:35:08.325Z,36.66
2023-08-27T13:38:11.309Z,35.19
2023-08-27T13:41:14.396Z,35.40
2023-08-27T13:44:17.086Z,34.41
2023-08-27T13:47:19.942Z,35.08
2023-08-27T13:50:22.934Z,34.72
2023-08-27T13:53:25.801Z,34.82
2023-08-27T13:56:28.720Z,34.79
2023-08-27T13:59:31.542Z,35.18
2023-08-27T14:02:34.408Z,36.24
2023-08-27T14:05:37.888Z,34.60
2023-08-27T14:08:40.662Z,33.47
2023-08-27T14:11:43.565Z,33.68
2023-08-27T14:14:46.502Z,33.84
2023-08-27T14:17:49.302Z,33.46
2023-08-27T14:20:52.109Z,34.76
2023-08-27T14:23:54.965Z,33.36
2023-08-27T14:26:57.655Z,32.53
2023-08-27T14:30:00.521Z,33.19
2023-08-27T14:33:04.205Z,32.26
2023-08-27T14:36:07.404Z,32.37
2023-08-27T14:39:10.154Z,31.92
2023-08-27T14:42:13.013Z,32.77
2023-08-27T14:45:15.806Z,32.23
2023-08-27T14:48:18.568Z,32.20
2023-08-27T14:51:21.477Z,32.57
2023-08-27T14:54:24.418Z,31.75
2023-08-27T14:57:27.356Z,31.90
2023-08-27T15:00:30.271Z,31.38
2023-08-27T15:03:33.096Z,31.73
2023-08-27T15:06:35.811Z,31.88
2023-08-27T15:09:38.712Z,32.07
2023-08-27T15:12:41.736Z,32.28
2023-08-27T15:15:44.485Z,32.15
2023-08-27T15:18:47.357Z,32.81
2023-08-27T15:21:50.087Z,32.47
2023-08-27T15:24:52.906Z,32.66
2023-08-27T15:27:55.892Z,32.65
2023-08-27T15:30:58.678Z,32.96
2023-08-27T15:34:01.445Z,33.47
2023-08-27T15:37:06.412Z,32.58
2023-08-27T15:40:09.682Z,33.00
2023-08-27T15:43:20.651Z,34.81
2023-08-27T15:46:25.597Z,34.46
2023-08-27T15:49:29.360Z,34.00
2023-08-27T15:52:34.229Z,35.23
2023-08-27T15:55:37.087Z,36.27
2023-08-27T15:58:39.903Z,35.59
2023-08-27T16:01:42.746Z,36.14
2023-08-27T16:04:45.521Z,36.69
2023-08-27T16:07:48.415Z,37.92
2023-08-27T16:10:51.608Z,38.22
2023-08-27T16:13:54.348Z,39.47
2023-08-27T16:16:57.310Z,39.64
2023-08-27T16:20:00.054Z,40.78
2023-08-27T16:23:03.192Z,41.42
2023-08-27T16:26:05.978Z,41.83
2023-08-27T16:29:08.630Z,42.30
2023-08-27T16:32:11.344Z,42.83
2023-08-27T16:35:14.312Z,43.78
2023-08-27T16:38:16.971Z,44.22
2023-08-27T16:41:19.692Z,44.97
2023-08-27T16:44:23.370Z,45.89
2023-08-27T16:47:26.503Z,47.18
2023-08-27T16:50:29.554Z,48.10
2023-08-27T16:53:32.204Z,48.89
2023-08-27T16:56:34.967Z,49.93
2023-08-27T16:59:37.752Z,51.18
2023-08-27T17:02:40.725Z,52.53
2023-08-27T17:05:44.127Z,55.63
2023-08-27T17:08:46.914Z,55.68
2023-08-27T17:11:49.627Z,57.17
2023-08-27T17:14:52.400Z,60.66
2023-08-27T17:17:55.706Z,61.28
2023-08-27T17:20:59.367Z,63.18
2023-08-27T17:24:04.798Z,63.34
2023-08-27T17:27:07.903Z,65.74
2023-08-27T17:30:11.315Z,66.50
2023-08-27T17:36:44.251Z,68.32
2023-08-27T17:39:47.765Z,68.65
2023-08-27T17:42:51.426Z,70.53
2023-08-27T17:45:54.508Z,73.45
2023-08-27T17:49:00.641Z,76.13
2023-08-27T17:52:04.138Z,79.02
2023-08-27T17:55:07.382Z,79.39
2023-08-27T17:58:12.838Z,78.28
2023-08-27T18:01:16.329Z,79.35
2023-08-27T18:04:19.588Z,82.03
2023-08-27T18:07:29.696Z,79.97
2023-08-27T18:11:32.810Z,81.56
2023-08-27T18:15:02.039Z,84.02
2023-08-27T18:18:09.339Z,84.81
2023-08-27T18:21:12.229Z,89.77
2023-08-27T18:24:15.220Z,89.32
2023-08-27T18:27:18.681Z,89.40
2023-08-27T18:30:59.464Z,91.28
2023-08-27T18:34:23.931Z,92.32
2023-08-27T18:37:30.826Z,92.74
2023-08-27T18:40:35.102Z,92.63
2023-08-27T18:43:40.202Z,91.38
2023-08-27T18:46:44.715Z,90.83
2023-08-27T18:49:48.796Z,92.75
2023-08-27T18:52:52.206Z,92.67
2023-08-27T18:55:59.994Z,92.43
2023-08-27T18:59:04.449Z,93.48
2023-08-27T19:02:17.517Z,92.86
2023-08-27T19:05:20.385Z,93.76
2023-08-27T19:08:23.222Z,92.98
2023-08-27T19:11:26.061Z,93.76
2023-08-27T19:14:32.139Z,93.85
2023-08-27T19:17:38.245Z,94.92
2023-08-27T19:20:41.146Z,95.44
2023-08-27T19:23:43.887Z,95.43
2023-08-27T19:26:46.668Z,96.73
2023-08-27T19:29:49.389Z,96.73
2023-08-27T19:32:52.623Z,96.45
2023-08-27T19:35:55.863Z,97.00
2023-08-27T19:38:58.933Z,96.16
2023-08-27T19:42:01.862Z,96.03
2023-08-27T19:45:05.191Z,97.01
2023-08-27T19:48:07.979Z,96.65
2023-08-27T19:51:11.192Z,96.74
2023-08-27T19:54:14.449Z,97.33
2023-08-27T19:57:18.017Z,97.83
2023-08-27T20:00:21.730Z,98.03
2023-08-27T20:03:25.788Z,98.70
2023-08-27T20:06:30.696Z,98.78
2023-08-27T20:09:35.300Z,98.89
2023-08-27T20:12:38.471Z,99.33
2023-08-27T20:15:44.609Z,99.30
2023-08-27T20:18:47.551Z,98.60
2023-08-27T20:21:50.406Z,100.00
2023-08-27T20:24:53.220Z,99.55
2023-08-27T20:27:56.706Z,99.87
2023-08-27T20:30:59.456Z,99.64
2023-08-27T20:34:02.343Z,99.14
2023-08-27T20:37:05.427Z,99.53
2023-08-27T20:40:15.751Z,99.76
2023-08-27T20:43:18.529Z,100.00
2023-08-27T20:46:22.105Z,99.68
2023-08-27T20:49:25.178Z,100.00
2023-08-27T20:52:28.041Z,100.00
2023-08-27T20:55:31.117Z,100.00
2023-08-27T20:58:33.811Z,100.00
2023-08-27T21:01:36.568Z,100.00
2023-08-27T21:07:42.449Z,100.00
2023-08-27T21:10:49.394Z,100.00
2023-08-27T21:13:56.507Z,100.00
2023-08-27T21:17:02.797Z,100.00
2023-08-27T21:20:06.153Z,100.00
2023-08-27T21:23:10.646Z,100.00
2023-08-27T21:26:13.431Z,100.00
2023-08-27T21:29:16.313Z,100.00
2023-08-27T21:32:21.097Z,100.00
2023-08-27T21:35:23.946Z,100.00
2023-08-27T21:38:26.666Z,100.00
2023-08-27T21:41:32.314Z,100.00
2023-08-27T21:44:36.125Z,100.00
2023-08-27T21:47:39.978Z,100.00
2023-08-27T21:50:45.487Z,100.00
2023-08-27T21:53:48.252Z,100.00
2023-08-27T21:56:53.932Z,100.00
2023-08-27T21:59:56.671Z,100.00
2023-08-27T22:03:02.658Z,100.00
2023-08-27T22:06:08.783Z,100.00
2023-08-27T22:09:12.899Z,100.00
2023-08-27T22:12:15.975Z,100.00
2023-08-27T22:15:18.849Z,100.00
2023-08-27T22:18:24.451Z,100.00
2023-08-27T22:21:27.225Z,100.00
2023-08-27T22:24:30.562Z,100.00
2023-08-27T22:27:36.476Z,100.00
2023-08-27T22:30:42.713Z,100.00
2023-08-27T22:33:45.525Z,100.00
2023-08-27T22:36:48.437Z,100.00
2023-08-27T22:39:54.263Z,100.00
2023-08-27T22:42:57.039Z,100.00
2023-08-27T22:46:02.978Z,100.00
2023-08-27T22:49:06.146Z,100.00
2023-08-27T22:52:08.846Z,100.00
2023-08-27T22:55:14.730Z,100.00
2023-08-27T22:58:17.478Z,100.00
2023-08-27T23:01:20.359Z,100.00
2023-08-27T23:04:26.134Z,100.00
2023-08-27T23:07:28.844Z,100.00
2023-08-27T23:10:32.604Z,100.00
2023-08-27T23:13:35.307Z,100.00
2023-08-27T23:16:38.235Z,100.00
2023-08-27T23:19:41.617Z,100.00
2023-08-27T23:22:44.351Z,100.00
2023-08-27T23:25:47.493Z,100.00
2023-08-27T23:28:57.480Z,100.00
2023-08-27T23:32:00.241Z,100.00
2023-08-27T23:35:04.560Z,100.00
2023-08-27T23:38:07.289Z,100.00
2023-08-27T23:41:10.310Z,100.00
2023-08-27T23:44:13.049Z,100.00
2023-08-27T23:47:15.759Z,100.00
2023-08-27T23:50:18.552Z,100.00
2023-08-27T23:53:24.113Z,100.00
2023-08-27T23:56:26.947Z,100.00
2023-08-27T23:59:33.872Z,100.00
